sensor_id;sensor_type;location;lat;lon;timestamp;P1;durP1;ratioP1;P2;durP2;ratioP2
21621;SDS011;10973;46.706;12.340;2023-04-24T00:01:24;7.17;;;6.57;;
21621;SDS011;10973;46.706;12.340;2023-04-24T00:03:51;7.10;;;6.40;;
21621;SDS011;10973;46.706;12.340;2023-04-24T00:06:19;6.47;;;5.97;;
21621;SDS011;10973;46.706;12.340;2023-04-24T00:08:47;7.07;;;6.23;;
21621;SDS011;10973;46.706;12.340;2023-04-24T00:11:14;7.47;;;6.77;;
21621;SDS011;10973;46.706;12.340;2023-04-24T00:13:41;7.10;;;6.50;;
21621;SDS011;10973;46.706;12.340;2023-04-24T00:16:09;6.87;;;6.17;;
21621;SDS011;10973;46.706;12.340;2023-04-24T00:18:36;6.97;;;6.40;;
21621;SDS011;10973;46.706;12.340;2023-04-24T00:21:03;5.60;;;5.20;;
21621;SDS011;10973;46.706;12.340;2023-04-24T00:23:31;5.63;;;5.23;;
21621;SDS011;10973;46.706;12.340;2023-04-24T00:25:58;4.60;;;4.23;;
21621;SDS011;10973;46.706;12.340;2023-04-24T00:28:26;4.83;;;4.53;;
21621;SDS011;10973;46.706;12.340;2023-04-24T00:30:53;5.03;;;4.63;;
21621;SDS011;10973;46.706;12.340;2023-04-24T00:33:20;4.20;;;3.80;;
21621;SDS011;10973;46.706;12.340;2023-04-24T00:35:48;4.33;;;3.77;;
21621;SDS011;10973;46.706;12.340;2023-04-24T00:38:15;3.40;;;3.20;;
21621;SDS011;10973;46.706;12.340;2023-04-24T00:40:42;3.50;;;3.27;;
21621;SDS011;10973;46.706;12.340;2023-04-24T00:43:10;3.40;;;3.10;;
21621;SDS011;10973;46.706;12.340;2023-04-24T00:45:37;3.10;;;2.90;;
21621;SDS011;10973;46.706;12.340;2023-04-24T00:48:05;3.07;;;2.87;;
21621;SDS011;10973;46.706;12.340;2023-04-24T00:50:35;2.87;;;2.67;;
21621;SDS011;10973;46.706;12.340;2023-04-24T00:53:04;3.10;;;2.90;;
21621;SDS011;10973;46.706;12.340;2023-04-24T00:55:32;3.07;;;2.87;;
21621;SDS011;10973;46.706;12.340;2023-04-24T00:57:59;3.50;;;3.30;;
21621;SDS011;10973;46.706;12.340;2023-04-24T01:00:26;3.23;;;3.03;;
21621;SDS011;10973;46.706;12.340;2023-04-24T01:02:54;3.27;;;2.97;;
21621;SDS011;10973;46.706;12.340;2023-04-24T01:05:24;2.57;;;2.37;;
21621;SDS011;10973;46.706;12.340;2023-04-24T01:07:52;2.50;;;2.30;;
21621;SDS011;10973;46.706;12.340;2023-04-24T01:10:20;2.70;;;2.50;;
21621;SDS011;10973;46.706;12.340;2023-04-24T01:12:47;2.83;;;2.63;;
21621;SDS011;10973;46.706;12.340;2023-04-24T01:15:14;2.40;;;2.30;;
21621;SDS011;10973;46.706;12.340;2023-04-24T01:17:42;2.50;;;2.40;;
21621;SDS011;10973;46.706;12.340;2023-04-24T01:20:09;2.60;;;2.40;;
21621;SDS011;10973;46.706;12.340;2023-04-24T01:22:37;2.53;;;2.43;;
21621;SDS011;10973;46.706;12.340;2023-04-24T01:25:04;2.27;;;2.17;;
21621;SDS011;10973;46.706;12.340;2023-04-24T01:27:32;2.40;;;2.30;;
21621;SDS011;10973;46.706;12.340;2023-04-24T01:30:00;2.70;;;2.50;;
21621;SDS011;10973;46.706;12.340;2023-04-24T01:32:27;2.63;;;2.43;;
21621;SDS011;10973;46.706;12.340;2023-04-24T01:34:55;2.80;;;2.70;;
21621;SDS011;10973;46.706;12.340;2023-04-24T01:37:23;2.50;;;2.40;;
21621;SDS011;10973;46.706;12.340;2023-04-24T01:39:51;2.60;;;2.40;;
21621;SDS011;10973;46.706;12.340;2023-04-24T01:42:19;2.43;;;2.33;;
21621;SDS011;10973;46.706;12.340;2023-04-24T01:44:46;2.67;;;2.57;;
21621;SDS011;10973;46.706;12.340;2023-04-24T01:47:14;3.00;;;2.80;;
21621;SDS011;10973;46.706;12.340;2023-04-24T01:49:41;2.40;;;2.30;;
21621;SDS011;10973;46.706;12.340;2023-04-24T01:52:09;2.90;;;2.57;;
21621;SDS011;10973;46.706;12.340;2023-04-24T01:54:37;2.60;;;2.50;;
21621;SDS011;10973;46.706;12.340;2023-04-24T01:57:04;2.97;;;2.77;;
21621;SDS011;10973;46.706;12.340;2023-04-24T01:59:32;2.80;;;2.50;;
21621;SDS011;10973;46.706;12.340;2023-04-24T02:02:01;2.63;;;2.53;;
21621;SDS011;10973;46.706;12.340;2023-04-24T02:04:29;2.83;;;2.73;;
21621;SDS011;10973;46.706;12.340;2023-04-24T02:06:56;2.70;;;2.57;;
21621;SDS011;10973;46.706;12.340;2023-04-24T02:09:23;3.30;;;3.00;;
21621;SDS011;10973;46.706;12.340;2023-04-24T02:11:51;2.80;;;2.60;;
21621;SDS011;10973;46.706;12.340;2023-04-24T02:14:18;2.80;;;2.63;;
21621;SDS011;10973;46.706;12.340;2023-04-24T02:16:46;3.10;;;2.90;;
21621;SDS011;10973;46.706;12.340;2023-04-24T02:19:13;2.93;;;2.73;;
21621;SDS011;10973;46.706;12.340;2023-04-24T02:21:40;3.33;;;3.13;;
21621;SDS011;10973;46.706;12.340;2023-04-24T02:24:08;3.20;;;3.00;;
21621;SDS011;10973;46.706;12.340;2023-04-24T02:26:35;2.87;;;2.67;;
21621;SDS011;10973;46.706;12.340;2023-04-24T02:29:03;2.80;;;2.70;;
21621;SDS011;10973;46.706;12.340;2023-04-24T02:31:30;3.77;;;3.10;;
21621;SDS011;10973;46.706;12.340;2023-04-24T02:33:57;2.97;;;2.87;;
21621;SDS011;10973;46.706;12.340;2023-04-24T02:36:25;2.67;;;2.57;;
21621;SDS011;10973;46.706;12.340;2023-04-24T02:38:52;3.53;;;2.90;;
21621;SDS011;10973;46.706;12.340;2023-04-24T02:41:19;2.90;;;2.80;;
21621;SDS011;10973;46.706;12.340;2023-04-24T02:43:47;3.40;;;3.20;;
21621;SDS011;10973;46.706;12.340;2023-04-24T02:46:14;3.40;;;3.20;;
21621;SDS011;10973;46.706;12.340;2023-04-24T02:48:41;3.23;;;3.03;;
21621;SDS011;10973;46.706;12.340;2023-04-24T02:51:09;2.90;;;2.80;;
21621;SDS011;10973;46.706;12.340;2023-04-24T02:53:36;3.03;;;2.87;;
21621;SDS011;10973;46.706;12.340;2023-04-24T02:56:03;2.97;;;2.83;;
21621;SDS011;10973;46.706;12.340;2023-04-24T02:58:31;3.30;;;3.10;;
21621;SDS011;10973;46.706;12.340;2023-04-24T03:00:58;3.40;;;3.20;;
21621;SDS011;10973;46.706;12.340;2023-04-24T03:03:26;3.57;;;3.27;;
21621;SDS011;10973;46.706;12.340;2023-04-24T03:05:53;3.60;;;3.40;;
21621;SDS011;10973;46.706;12.340;2023-04-24T03:08:21;3.40;;;2.87;;
21621;SDS011;10973;46.706;12.340;2023-04-24T03:10:48;3.40;;;3.20;;
21621;SDS011;10973;46.706;12.340;2023-04-24T03:13:16;3.07;;;2.90;;
21621;SDS011;10973;46.706;12.340;2023-04-24T03:15:44;2.80;;;2.60;;
21621;SDS011;10973;46.706;12.340;2023-04-24T03:18:12;2.90;;;2.80;;
21621;SDS011;10973;46.706;12.340;2023-04-24T03:20:39;3.10;;;2.90;;
21621;SDS011;10973;46.706;12.340;2023-04-24T03:23:07;3.53;;;3.33;;
21621;SDS011;10973;46.706;12.340;2023-04-24T03:25:34;3.50;;;3.30;;
21621;SDS011;10973;46.706;12.340;2023-04-24T03:28:02;3.53;;;3.33;;
21621;SDS011;10973;46.706;12.340;2023-04-24T03:30:29;5.93;;;5.03;;
21621;SDS011;10973;46.706;12.340;2023-04-24T03:32:56;5.10;;;4.60;;
21621;SDS011;10973;46.706;12.340;2023-04-24T03:35:24;4.63;;;3.73;;
21621;SDS011;10973;46.706;12.340;2023-04-24T03:37:51;3.97;;;3.67;;
21621;SDS011;10973;46.706;12.340;2023-04-24T03:40:18;3.40;;;3.10;;
21621;SDS011;10973;46.706;12.340;2023-04-24T03:42:46;3.37;;;3.17;;
21621;SDS011;10973;46.706;12.340;2023-04-24T03:45:13;3.73;;;3.03;;
21621;SDS011;10973;46.706;12.340;2023-04-24T03:47:40;4.50;;;3.60;;
21621;SDS011;10973;46.706;12.340;2023-04-24T03:50:08;5.40;;;4.90;;
21621;SDS011;10973;46.706;12.340;2023-04-24T03:52:38;5.10;;;4.70;;
21621;SDS011;10973;46.706;12.340;2023-04-24T03:55:05;2.77;;;2.60;;
21621;SDS011;10973;46.706;12.340;2023-04-24T03:57:33;3.00;;;2.80;;
21621;SDS011;10973;46.706;12.340;2023-04-24T04:00:01;1.60;;;1.60;;
21621;SDS011;10973;46.706;12.340;2023-04-24T04:02:28;2.30;;;2.20;;
21621;SDS011;10973;46.706;12.340;2023-04-24T04:04:56;2.60;;;2.40;;
21621;SDS011;10973;46.706;12.340;2023-04-24T04:07:23;2.50;;;2.40;;
21621;SDS011;10973;46.706;12.340;2023-04-24T04:09:50;3.30;;;2.90;;
21621;SDS011;10973;46.706;12.340;2023-04-24T04:12:18;3.57;;;3.27;;
21621;SDS011;10973;46.706;12.340;2023-04-24T04:14:45;3.20;;;3.00;;
21621;SDS011;10973;46.706;12.340;2023-04-24T04:17:12;2.80;;;2.60;;
21621;SDS011;10973;46.706;12.340;2023-04-24T04:19:40;2.40;;;2.30;;
21621;SDS011;10973;46.706;12.340;2023-04-24T04:22:07;2.00;;;1.90;;
21621;SDS011;10973;46.706;12.340;2023-04-24T04:24:35;1.57;;;1.57;;
21621;SDS011;10973;46.706;12.340;2023-04-24T04:27:02;1.30;;;1.20;;
21621;SDS011;10973;46.706;12.340;2023-04-24T04:29:31;1.20;;;1.20;;
21621;SDS011;10973;46.706;12.340;2023-04-24T04:31:58;1.50;;;1.40;;
21621;SDS011;10973;46.706;12.340;2023-04-24T04:34:25;1.30;;;1.30;;
21621;SDS011;10973;46.706;12.340;2023-04-24T04:36:53;2.00;;;1.30;;
21621;SDS011;10973;46.706;12.340;2023-04-24T04:39:20;2.67;;;2.57;;
21621;SDS011;10973;46.706;12.340;2023-04-24T04:41:48;2.83;;;2.67;;
21621;SDS011;10973;46.706;12.340;2023-04-24T04:44:15;3.23;;;3.03;;
21621;SDS011;10973;46.706;12.340;2023-04-24T04:46:42;5.00;;;4.60;;
21621;SDS011;10973;46.706;12.340;2023-04-24T04:49:10;2.90;;;2.70;;
21621;SDS011;10973;46.706;12.340;2023-04-24T04:51:37;2.47;;;2.30;;
21621;SDS011;10973;46.706;12.340;2023-04-24T04:54:08;2.87;;;1.80;;
21621;SDS011;10973;46.706;12.340;2023-04-24T04:56:35;1.60;;;1.60;;
21621;SDS011;10973;46.706;12.340;2023-04-24T04:59:03;1.70;;;1.60;;
21621;SDS011;10973;46.706;12.340;2023-04-24T05:01:30;2.37;;;2.27;;
21621;SDS011;10973;46.706;12.340;2023-04-24T05:03:58;2.90;;;2.50;;
21621;SDS011;10973;46.706;12.340;2023-04-24T05:06:26;3.10;;;2.40;;
21621;SDS011;10973;46.706;12.340;2023-04-24T05:08:53;2.43;;;2.33;;
21621;SDS011;10973;46.706;12.340;2023-04-24T05:11:20;2.20;;;2.00;;
21621;SDS011;10973;46.706;12.340;2023-04-24T05:13:47;2.70;;;2.40;;
21621;SDS011;10973;46.706;12.340;2023-04-24T05:16:15;4.23;;;3.67;;
21621;SDS011;10973;46.706;12.340;2023-04-24T05:18:42;3.60;;;3.30;;
21621;SDS011;10973;46.706;12.340;2023-04-24T05:21:10;3.53;;;3.20;;
21621;SDS011;10973;46.706;12.340;2023-04-24T05:23:37;2.90;;;2.40;;
21621;SDS011;10973;46.706;12.340;2023-04-24T05:26:04;3.30;;;2.80;;
21621;SDS011;10973;46.706;12.340;2023-04-24T05:28:33;3.27;;;3.07;;
21621;SDS011;10973;46.706;12.340;2023-04-24T05:31:00;2.37;;;2.20;;
21621;SDS011;10973;46.706;12.340;2023-04-24T05:33:28;1.53;;;1.40;;
21621;SDS011;10973;46.706;12.340;2023-04-24T05:35:55;3.10;;;2.90;;
21621;SDS011;10973;46.706;12.340;2023-04-24T05:38:25;2.60;;;2.27;;
21621;SDS011;10973;46.706;12.340;2023-04-24T05:40:52;1.60;;;1.50;;
21621;SDS011;10973;46.706;12.340;2023-04-24T05:43:20;1.23;;;1.23;;
21621;SDS011;10973;46.706;12.340;2023-04-24T05:45:48;2.57;;;2.37;;
21621;SDS011;10973;46.706;12.340;2023-04-24T05:48:15;1.50;;;1.40;;
21621;SDS011;10973;46.706;12.340;2023-04-24T05:50:42;1.70;;;1.60;;
21621;SDS011;10973;46.706;12.340;2023-04-24T05:53:09;1.30;;;1.30;;
21621;SDS011;10973;46.706;12.340;2023-04-24T05:55:37;1.10;;;1.10;;
21621;SDS011;10973;46.706;12.340;2023-04-24T05:58:04;1.10;;;1.10;;
21621;SDS011;10973;46.706;12.340;2023-04-24T06:00:32;1.73;;;0.93;;
21621;SDS011;10973;46.706;12.340;2023-04-24T06:03:00;0.80;;;0.80;;
21621;SDS011;10973;46.706;12.340;2023-04-24T06:05:27;0.90;;;0.90;;
21621;SDS011;10973;46.706;12.340;2023-04-24T06:07:55;1.50;;;1.00;;
21621;SDS011;10973;46.706;12.340;2023-04-24T06:10:22;1.00;;;1.00;;
21621;SDS011;10973;46.706;12.340;2023-04-24T06:12:50;0.80;;;0.80;;
21621;SDS011;10973;46.706;12.340;2023-04-24T06:15:17;1.07;;;1.07;;
21621;SDS011;10973;46.706;12.340;2023-04-24T06:17:45;1.37;;;1.30;;
21621;SDS011;10973;46.706;12.340;2023-04-24T06:20:12;1.20;;;1.20;;
21621;SDS011;10973;46.706;12.340;2023-04-24T06:22:40;1.30;;;1.20;;
21621;SDS011;10973;46.706;12.340;2023-04-24T06:25:07;0.93;;;0.93;;
21621;SDS011;10973;46.706;12.340;2023-04-24T06:27:35;0.90;;;0.90;;
21621;SDS011;10973;46.706;12.340;2023-04-24T06:30:02;0.87;;;0.87;;
21621;SDS011;10973;46.706;12.340;2023-04-24T06:32:30;0.90;;;0.90;;
21621;SDS011;10973;46.706;12.340;2023-04-24T06:34:58;0.90;;;0.90;;
21621;SDS011;10973;46.706;12.340;2023-04-24T06:37:25;0.70;;;0.70;;
21621;SDS011;10973;46.706;12.340;2023-04-24T06:39:52;2.93;;;2.70;;
21621;SDS011;10973;46.706;12.340;2023-04-24T06:42:20;1.00;;;1.00;;
21621;SDS011;10973;46.706;12.340;2023-04-24T06:44:47;1.10;;;1.10;;
21621;SDS011;10973;46.706;12.340;2023-04-24T06:47:15;1.30;;;1.30;;
21621;SDS011;10973;46.706;12.340;2023-04-24T06:49:42;1.40;;;1.27;;
21621;SDS011;10973;46.706;12.340;2023-04-24T06:52:10;1.30;;;1.30;;
21621;SDS011;10973;46.706;12.340;2023-04-24T06:54:37;1.83;;;1.73;;
21621;SDS011;10973;46.706;12.340;2023-04-24T06:57:04;1.27;;;1.27;;
21621;SDS011;10973;46.706;12.340;2023-04-24T06:59:32;1.20;;;1.20;;
21621;SDS011;10973;46.706;12.340;2023-04-24T07:01:59;1.40;;;1.40;;
21621;SDS011;10973;46.706;12.340;2023-04-24T07:04:27;1.60;;;1.60;;
21621;SDS011;10973;46.706;12.340;2023-04-24T07:06:55;2.17;;;1.20;;
21621;SDS011;10973;46.706;12.340;2023-04-24T07:09:22;4.30;;;1.70;;
21621;SDS011;10973;46.706;12.340;2023-04-24T07:11:51;5.67;;;3.30;;
21621;SDS011;10973;46.706;12.340;2023-04-24T07:14:20;2.00;;;1.90;;
21621;SDS011;10973;46.706;12.340;2023-04-24T07:16:48;1.70;;;1.20;;
21621;SDS011;10973;46.706;12.340;2023-04-24T07:19:15;1.17;;;1.10;;
21621;SDS011;10973;46.706;12.340;2023-04-24T07:21:42;0.90;;;0.90;;
21621;SDS011;10973;46.706;12.340;2023-04-24T07:24:10;1.10;;;0.97;;
21621;SDS011;10973;46.706;12.340;2023-04-24T07:26:38;1.10;;;1.10;;
21621;SDS011;10973;46.706;12.340;2023-04-24T07:29:05;1.30;;;1.13;;
21621;SDS011;10973;46.706;12.340;2023-04-24T07:31:33;3.97;;;3.50;;
21621;SDS011;10973;46.706;12.340;2023-04-24T07:34:01;9.20;;;8.40;;
21621;SDS011;10973;46.706;12.340;2023-04-24T07:36:29;6.10;;;5.63;;
21621;SDS011;10973;46.706;12.340;2023-04-24T07:38:56;4.20;;;3.90;;
21621;SDS011;10973;46.706;12.340;2023-04-24T07:41:23;6.57;;;6.07;;
21621;SDS011;10973;46.706;12.340;2023-04-24T07:43:51;7.53;;;6.83;;
21621;SDS011;10973;46.706;12.340;2023-04-24T07:46:18;7.57;;;6.40;;
21621;SDS011;10973;46.706;12.340;2023-04-24T07:48:46;6.70;;;5.87;;
21621;SDS011;10973;46.706;12.340;2023-04-24T07:51:19;6.40;;;3.87;;
21621;SDS011;10973;46.706;12.340;2023-04-24T07:53:46;5.73;;;4.93;;
21621;SDS011;10973;46.706;12.340;2023-04-24T07:56:13;4.83;;;4.27;;
21621;SDS011;10973;46.706;12.340;2023-04-24T07:58:41;10.23;;;7.20;;
21621;SDS011;10973;46.706;12.340;2023-04-24T08:01:08;6.53;;;5.17;;
21621;SDS011;10973;46.706;12.340;2023-04-24T08:03:35;6.50;;;4.87;;
21621;SDS011;10973;46.706;12.340;2023-04-24T08:06:03;4.93;;;4.53;;
21621;SDS011;10973;46.706;12.340;2023-04-24T08:08:31;3.83;;;3.50;;
21621;SDS011;10973;46.706;12.340;2023-04-24T08:10:58;4.23;;;3.87;;
21621;SDS011;10973;46.706;12.340;2023-04-24T08:13:25;5.57;;;5.03;;
21621;SDS011;10973;46.706;12.340;2023-04-24T08:15:53;4.57;;;4.17;;
21621;SDS011;10973;46.706;12.340;2023-04-24T08:18:20;4.50;;;4.10;;
21621;SDS011;10973;46.706;12.340;2023-04-24T08:20:48;5.03;;;4.37;;
21621;SDS011;10973;46.706;12.340;2023-04-24T08:23:16;4.33;;;3.93;;
21621;SDS011;10973;46.706;12.340;2023-04-24T08:25:43;4.70;;;4.23;;
21621;SDS011;10973;46.706;12.340;2023-04-24T08:28:10;5.63;;;4.30;;
21621;SDS011;10973;46.706;12.340;2023-04-24T08:30:40;4.20;;;3.80;;
21621;SDS011;10973;46.706;12.340;2023-04-24T08:33:07;2.50;;;2.30;;
21621;SDS011;10973;46.706;12.340;2023-04-24T08:35:34;1.93;;;1.83;;
21621;SDS011;10973;46.706;12.340;2023-04-24T08:38:02;2.27;;;1.60;;
21621;SDS011;10973;46.706;12.340;2023-04-24T08:40:29;1.40;;;1.40;;
21621;SDS011;10973;46.706;12.340;2023-04-24T08:43:01;1.77;;;1.67;;
21621;SDS011;10973;46.706;12.340;2023-04-24T08:45:30;9.63;;;5.70;;
21621;SDS011;10973;46.706;12.340;2023-04-24T08:47:59;7.30;;;4.60;;
21621;SDS011;10973;46.706;12.340;2023-04-24T08:50:27;3.33;;;3.03;;
21621;SDS011;10973;46.706;12.340;2023-04-24T08:52:56;6.43;;;5.83;;
21621;SDS011;10973;46.706;12.340;2023-04-24T08:55:24;2.43;;;2.33;;
21621;SDS011;10973;46.706;12.340;2023-04-24T08:57:52;2.00;;;1.90;;
21621;SDS011;10973;46.706;12.340;2023-04-24T09:00:20;8.33;;;7.53;;
21621;SDS011;10973;46.706;12.340;2023-04-24T09:02:49;5.30;;;4.93;;
21621;SDS011;10973;46.706;12.340;2023-04-24T09:05:17;4.17;;;3.97;;
21621;SDS011;10973;46.706;12.340;2023-04-24T09:07:45;5.30;;;5.00;;
21621;SDS011;10973;46.706;12.340;2023-04-24T09:10:25;4.07;;;3.87;;
21621;SDS011;10973;46.706;12.340;2023-04-24T09:12:53;3.10;;;2.90;;
21621;SDS011;10973;46.706;12.340;2023-04-24T09:15:23;1.83;;;1.73;;
21621;SDS011;10973;46.706;12.340;2023-04-24T09:17:52;1.50;;;1.50;;
21621;SDS011;10973;46.706;12.340;2023-04-24T09:20:19;2.03;;;1.90;;
21621;SDS011;10973;46.706;12.340;2023-04-24T09:22:47;1.67;;;1.57;;
21621;SDS011;10973;46.706;12.340;2023-04-24T09:25:15;1.30;;;1.30;;
21621;SDS011;10973;46.706;12.340;2023-04-24T09:27:43;1.53;;;1.40;;
21621;SDS011;10973;46.706;12.340;2023-04-24T09:30:12;4.30;;;1.40;;
21621;SDS011;10973;46.706;12.340;2023-04-24T09:32:40;1.40;;;1.40;;
21621;SDS011;10973;46.706;12.340;2023-04-24T09:37:39;1.50;;;1.50;;
21621;SDS011;10973;46.706;12.340;2023-04-24T09:40:17;1.40;;;1.40;;
21621;SDS011;10973;46.706;12.340;2023-04-24T09:42:56;1.77;;;1.30;;
21621;SDS011;10973;46.706;12.340;2023-04-24T09:45:41;1.73;;;1.43;;
21621;SDS011;10973;46.706;12.340;2023-04-24T09:48:09;1.30;;;1.30;;
21621;SDS011;10973;46.706;12.340;2023-04-24T09:50:37;1.60;;;1.50;;
21621;SDS011;10973;46.706;12.340;2023-04-24T09:53:05;1.10;;;1.10;;
21621;SDS011;10973;46.706;12.340;2023-04-24T09:55:33;1.20;;;1.20;;
21621;SDS011;10973;46.706;12.340;2023-04-24T09:58:12;1.20;;;1.20;;
21621;SDS011;10973;46.706;12.340;2023-04-24T10:00:40;1.90;;;1.50;;
21621;SDS011;10973;46.706;12.340;2023-04-24T10:03:07;3.97;;;1.93;;
21621;SDS011;10973;46.706;12.340;2023-04-24T10:05:35;1.90;;;1.40;;
21621;SDS011;10973;46.706;12.340;2023-04-24T10:08:05;1.13;;;1.13;;
21621;SDS011;10973;46.706;12.340;2023-04-24T10:10:37;1.27;;;1.20;;
21621;SDS011;10973;46.706;12.340;2023-04-24T10:13:12;1.00;;;1.00;;
21621;SDS011;10973;46.706;12.340;2023-04-24T10:15:41;1.10;;;1.10;;
21621;SDS011;10973;46.706;12.340;2023-04-24T10:18:09;1.93;;;1.20;;
21621;SDS011;10973;46.706;12.340;2023-04-24T10:20:38;0.90;;;0.90;;
21621;SDS011;10973;46.706;12.340;2023-04-24T10:23:07;1.17;;;0.90;;
21621;SDS011;10973;46.706;12.340;2023-04-24T10:25:35;0.93;;;0.93;;
21621;SDS011;10973;46.706;12.340;2023-04-24T10:28:03;1.07;;;1.07;;
21621;SDS011;10973;46.706;12.340;2023-04-24T10:30:32;0.90;;;0.90;;
21621;SDS011;10973;46.706;12.340;2023-04-24T10:33:04;1.73;;;1.63;;
21621;SDS011;10973;46.706;12.340;2023-04-24T10:35:35;2.00;;;1.90;;
21621;SDS011;10973;46.706;12.340;2023-04-24T10:38:09;2.10;;;2.00;;
21621;SDS011;10973;46.706;12.340;2023-04-24T10:40:40;1.50;;;1.50;;
21621;SDS011;10973;46.706;12.340;2023-04-24T10:43:10;1.40;;;1.33;;
21621;SDS011;10973;46.706;12.340;2023-04-24T10:45:59;1.30;;;1.30;;
21621;SDS011;10973;46.706;12.340;2023-04-24T10:48:28;1.10;;;1.10;;
21621;SDS011;10973;46.706;12.340;2023-04-24T10:50:57;1.00;;;1.00;;
21621;SDS011;10973;46.706;12.340;2023-04-24T10:53:27;1.13;;;1.13;;
21621;SDS011;10973;46.706;12.340;2023-04-24T10:58:37;1.20;;;1.20;;
21621;SDS011;10973;46.706;12.340;2023-04-24T11:01:29;1.00;;;1.00;;
21621;SDS011;10973;46.706;12.340;2023-04-24T11:03:59;1.27;;;1.27;;
21621;SDS011;10973;46.706;12.340;2023-04-24T11:06:36;2.03;;;1.53;;
21621;SDS011;10973;46.706;12.340;2023-04-24T11:09:07;1.40;;;1.40;;
21621;SDS011;10973;46.706;12.340;2023-04-24T11:11:37;1.30;;;1.30;;
21621;SDS011;10973;46.706;12.340;2023-04-24T11:14:13;1.23;;;1.23;;
21621;SDS011;10973;46.706;12.340;2023-04-24T11:16:43;1.17;;;1.17;;
21621;SDS011;10973;46.706;12.340;2023-04-24T11:19:20;1.20;;;1.20;;
21621;SDS011;10973;46.706;12.340;2023-04-24T11:21:55;1.20;;;1.20;;
21621;SDS011;10973;46.706;12.340;2023-04-24T11:24:25;1.30;;;1.30;;
21621;SDS011;10973;46.706;12.340;2023-04-24T11:27:11;1.60;;;1.50;;
21621;SDS011;10973;46.706;12.340;2023-04-24T11:35:05;1.50;;;1.50;;
21621;SDS011;10973;46.706;12.340;2023-04-24T11:37:45;1.30;;;1.20;;
21621;SDS011;10973;46.706;12.340;2023-04-24T11:40:34;2.07;;;1.97;;
21621;SDS011;10973;46.706;12.340;2023-04-24T11:43:04;1.40;;;1.40;;
21621;SDS011;10973;46.706;12.340;2023-04-24T11:45:33;1.30;;;1.30;;
21621;SDS011;10973;46.706;12.340;2023-04-24T11:48:02;1.23;;;1.23;;
21621;SDS011;10973;46.706;12.340;2023-04-24T11:50:30;1.30;;;1.30;;
21621;SDS011;10973;46.706;12.340;2023-04-24T11:52:57;1.30;;;1.30;;
21621;SDS011;10973;46.706;12.340;2023-04-24T11:55:26;1.13;;;1.13;;
21621;SDS011;10973;46.706;12.340;2023-04-24T11:57:56;1.07;;;1.07;;
21621;SDS011;10973;46.706;12.340;2023-04-24T12:00:27;1.40;;;1.40;;
21621;SDS011;10973;46.706;12.340;2023-04-24T12:03:07;1.10;;;1.10;;
21621;SDS011;10973;46.706;12.340;2023-04-24T12:05:38;1.20;;;1.20;;
21621;SDS011;10973;46.706;12.340;2023-04-24T12:08:06;1.20;;;1.20;;
21621;SDS011;10973;46.706;12.340;2023-04-24T12:10:35;1.20;;;1.20;;
21621;SDS011;10973;46.706;12.340;2023-04-24T12:13:03;1.10;;;1.10;;
21621;SDS011;10973;46.706;12.340;2023-04-24T12:15:31;2.30;;;2.20;;
21621;SDS011;10973;46.706;12.340;2023-04-24T12:17:58;1.43;;;1.43;;
21621;SDS011;10973;46.706;12.340;2023-04-24T12:20:30;1.40;;;1.30;;
21621;SDS011;10973;46.706;12.340;2023-04-24T12:23:00;1.20;;;1.20;;
21621;SDS011;10973;46.706;12.340;2023-04-24T12:25:31;1.30;;;1.30;;
21621;SDS011;10973;46.706;12.340;2023-04-24T12:30:34;2.83;;;1.13;;
21621;SDS011;10973;46.706;12.340;2023-04-24T12:33:07;1.90;;;1.80;;
21621;SDS011;10973;46.706;12.340;2023-04-24T12:35:34;1.30;;;1.30;;
21621;SDS011;10973;46.706;12.340;2023-04-24T12:38:06;1.60;;;1.50;;
21621;SDS011;10973;46.706;12.340;2023-04-24T12:40:40;1.20;;;1.20;;
21621;SDS011;10973;46.706;12.340;2023-04-24T12:43:13;1.80;;;1.30;;
21621;SDS011;10973;46.706;12.340;2023-04-24T12:45:43;1.70;;;1.40;;
21621;SDS011;10973;46.706;12.340;2023-04-24T12:48:11;1.20;;;1.20;;
21621;SDS011;10973;46.706;12.340;2023-04-24T12:50:38;1.20;;;1.20;;
21621;SDS011;10973;46.706;12.340;2023-04-24T12:53:07;1.27;;;1.27;;
21621;SDS011;10973;46.706;12.340;2023-04-24T12:55:35;1.60;;;1.50;;
21621;SDS011;10973;46.706;12.340;2023-04-24T12:58:03;1.60;;;1.50;;
21621;SDS011;10973;46.706;12.340;2023-04-24T13:00:31;1.77;;;1.67;;
21621;SDS011;10973;46.706;12.340;2023-04-24T13:02:59;1.40;;;1.40;;
21621;SDS011;10973;46.706;12.340;2023-04-24T13:05:28;1.10;;;1.10;;
21621;SDS011;10973;46.706;12.340;2023-04-24T13:07:57;1.40;;;1.40;;
21621;SDS011;10973;46.706;12.340;2023-04-24T13:10:24;1.30;;;1.20;;
21621;SDS011;10973;46.706;12.340;2023-04-24T13:12:52;0.80;;;0.80;;
21621;SDS011;10973;46.706;12.340;2023-04-24T13:15:19;0.90;;;0.90;;
21621;SDS011;10973;46.706;12.340;2023-04-24T13:17:48;1.20;;;1.00;;
21621;SDS011;10973;46.706;12.340;2023-04-24T13:20:17;1.10;;;1.10;;
21621;SDS011;10973;46.706;12.340;2023-04-24T13:22:44;0.90;;;0.90;;
21621;SDS011;10973;46.706;12.340;2023-04-24T13:25:12;1.10;;;1.10;;
21621;SDS011;10973;46.706;12.340;2023-04-24T13:27:39;1.70;;;1.20;;
21621;SDS011;10973;46.706;12.340;2023-04-24T13:30:07;1.00;;;1.00;;
21621;SDS011;10973;46.706;12.340;2023-04-24T13:32:35;0.70;;;0.70;;
21621;SDS011;10973;46.706;12.340;2023-04-24T13:35:04;1.03;;;0.80;;
21621;SDS011;10973;46.706;12.340;2023-04-24T13:37:32;0.90;;;0.90;;
21621;SDS011;10973;46.706;12.340;2023-04-24T13:39:59;0.77;;;0.77;;
21621;SDS011;10973;46.706;12.340;2023-04-24T13:42:27;1.03;;;1.00;;
21621;SDS011;10973;46.706;12.340;2023-04-24T13:44:54;3.07;;;0.80;;
21621;SDS011;10973;46.706;12.340;2023-04-24T13:47:22;1.17;;;0.90;;
21621;SDS011;10973;46.706;12.340;2023-04-24T13:49:49;1.00;;;1.00;;
21621;SDS011;10973;46.706;12.340;2023-04-24T13:52:19;4.40;;;1.87;;
21621;SDS011;10973;46.706;12.340;2023-04-24T13:54:46;6.07;;;1.47;;
21621;SDS011;10973;46.706;12.340;2023-04-24T13:57:14;1.53;;;0.90;;
21621;SDS011;10973;46.706;12.340;2023-04-24T13:59:41;0.80;;;0.80;;
21621;SDS011;10973;46.706;12.340;2023-04-24T14:02:09;1.53;;;1.10;;
21621;SDS011;10973;46.706;12.340;2023-04-24T14:04:36;1.67;;;1.20;;
21621;SDS011;10973;46.706;12.340;2023-04-24T14:07:04;1.50;;;1.40;;
21621;SDS011;10973;46.706;12.340;2023-04-24T14:09:31;0.90;;;0.90;;
21621;SDS011;10973;46.706;12.340;2023-04-24T14:11:58;1.03;;;0.90;;
21621;SDS011;10973;46.706;12.340;2023-04-24T14:14:26;3.30;;;0.93;;
21621;SDS011;10973;46.706;12.340;2023-04-24T14:16:53;1.20;;;1.10;;
21621;SDS011;10973;46.706;12.340;2023-04-24T14:19:20;3.57;;;1.10;;
21621;SDS011;10973;46.706;12.340;2023-04-24T14:21:48;1.23;;;1.10;;
21621;SDS011;10973;46.706;12.340;2023-04-24T14:24:15;0.70;;;0.70;;
21621;SDS011;10973;46.706;12.340;2023-04-24T14:26:42;1.30;;;0.90;;
21621;SDS011;10973;46.706;12.340;2023-04-24T14:29:10;0.93;;;0.93;;
21621;SDS011;10973;46.706;12.340;2023-04-24T14:31:41;1.70;;;1.30;;
21621;SDS011;10973;46.706;12.340;2023-04-24T14:34:09;1.03;;;0.90;;
21621;SDS011;10973;46.706;12.340;2023-04-24T14:36:36;0.90;;;0.90;;
21621;SDS011;10973;46.706;12.340;2023-04-24T14:39:04;0.90;;;0.90;;
21621;SDS011;10973;46.706;12.340;2023-04-24T14:41:32;4.53;;;1.80;;
21621;SDS011;10973;46.706;12.340;2023-04-24T14:44:00;1.47;;;1.30;;
21621;SDS011;10973;46.706;12.340;2023-04-24T14:46:29;1.10;;;1.10;;
21621;SDS011;10973;46.706;12.340;2023-04-24T14:48:57;0.90;;;0.90;;
21621;SDS011;10973;46.706;12.340;2023-04-24T14:51:25;1.60;;;1.50;;
21621;SDS011;10973;46.706;12.340;2023-04-24T14:53:53;3.13;;;1.60;;